メインページ
METAR-TAF:

METAR-TAF

空港 :

コペンハーゲン空港

コペンハーゲン, デンマーク

緯度: 55-37N, 経度: 012-39E, 海抜: 5m

現時点の気象観測

当レポートは37分前の18:50(UTC)に作成
の風 10kt
気温 20°C
湿度 68%
気圧 1009 hPa
視程10km以上
1,500メートル以下は雲なし、積乱雲なし

METAR: EKCH 181850Z 17010KT CAVOK 20/14 Q1009 NOSIG

時間: 21:27 (19:27 UTC)

予報

当レポートは2時間29分前の16:58(UTC)に作成
予報は18日の 18時(UTC)から 19日の 18時(UTC)まで有効
南/南東の風 12kt
視程10km以上
1,500メートル以下は雲なし、積乱雲なし
18日の 18時(UTC)から 18日の 21時(UTC)まで徐々に
西/南西の風 8kt

TAF: EKCH 181658Z 1818/1918 16012KT CAVOK BECMG 1818/1821 24008KT

4,000以上の空港の気象観測と天気予報(METAR報とTAF報)

利用可能な観測所は地図上に黄色い丸と赤い丸で示す。

丸の上にカーソルを重ねると観測所名を参照できる。

次にクリックすると気象観測と天気予報を参照できる。

マップの切り替え:黒色「×」印の緑ボタンをクリックして拡大、「-」印の緑ボタンをクリックして縮小、緑色の三角印をクリックして隣りの地図に切り替え


METAR-TAF: